createdAt,value
2023-05-17T00:02:14.563Z,98063.19
2023-05-17T00:12:17.639Z,98064.00
2023-05-17T00:22:20.177Z,98068.56
2023-05-17T00:32:24.829Z,98073.97
2023-05-17T00:42:27.584Z,98077.22
2023-05-17T00:52:29.986Z,98075.59
2023-05-17T01:02:32.462Z,98077.22
2023-05-17T01:12:47.280Z,98068.38
2023-05-17T01:22:54.106Z,98074.41
2023-05-17T01:32:59.620Z,98081.81
2023-05-17T01:43:19.112Z,98083.00
2023-05-17T01:53:27.027Z,98096.37
2023-05-17T02:03:29.858Z,98097.56
2023-05-17T02:13:33.308Z,98094.34
2023-05-17T02:23:36.444Z,98084.62
2023-05-17T02:33:38.995Z,98089.34
2023-05-17T02:43:41.918Z,98093.06
2023-05-17T02:53:45.750Z,98082.31
2023-05-17T03:03:49.819Z,98090.63
2023-05-17T03:13:52.830Z,98091.09
2023-05-17T03:23:55.572Z,98100.22
2023-05-17T03:33:58.116Z,98094.53
2023-05-17T03:44:01.570Z,98098.50
2023-05-17T03:54:04.960Z,98099.78
2023-05-17T04:04:08.283Z,98103.97
2023-05-17T04:14:11.635Z,98116.56
2023-05-17T04:24:14.371Z,98126.50
2023-05-17T04:34:17.414Z,98149.16
2023-05-17T04:44:20.161Z,98135.75
2023-05-17T04:54:22.933Z,98152.12
2023-05-17T05:04:27.774Z,98154.47
2023-05-17T05:14:30.474Z,98159.50
2023-05-17T05:24:33.075Z,98169.22
2023-05-17T05:34:37.282Z,98181.09
2023-05-17T05:44:43.420Z,98192.34
2023-05-17T05:54:50.641Z,98203.63
2023-05-17T06:04:54.786Z,98196.91
2023-05-17T06:14:58.160Z,98204.94
2023-05-17T06:25:01.433Z,98214.78
2023-05-17T06:35:05.175Z,98219.38
2023-05-17T06:45:08.992Z,98226.69
2023-05-17T06:56:11.734Z,98216.09
2023-05-17T07:06:14.764Z,98225.31
2023-05-17T07:16:18.702Z,98232.56
2023-05-17T07:26:23.065Z,98243.13
2023-05-17T07:36:27.970Z,98239.06
2023-05-17T07:46:35.422Z,98233.28
2023-05-17T07:56:43.552Z,98246.56
2023-05-17T08:06:49.535Z,98246.88
2023-05-17T08:16:52.495Z,98249.09
2023-05-17T08:26:58.237Z,98248.47
2023-05-17T08:37:01.586Z,98240.75
2023-05-17T08:47:04.881Z,98252.41
2023-05-17T08:57:08.574Z,98253.06
2023-05-17T09:07:11.797Z,98236.75
2023-05-17T09:17:15.794Z,98252.56
2023-05-17T09:27:19.339Z,98245.69
2023-05-17T09:37:22.536Z,98237.84
2023-05-17T09:47:25.068Z,98240.97
2023-05-17T09:57:29.942Z,98245.41
2023-05-17T10:07:34.350Z,98242.50
2023-05-17T10:17:45.440Z,98245.09
2023-05-17T10:27:53.352Z,98230.25
2023-05-17T10:37:56.788Z,98229.44
2023-05-17T10:48:02.952Z,98220.50
2023-05-17T10:58:10.780Z,98220.69
2023-05-17T11:08:15.387Z,98210.78
2023-05-17T11:18:29.481Z,98203.41
2023-05-17T11:28:38.433Z,98213.12
2023-05-17T11:39:01.449Z,98213.22
2023-05-17T11:49:17.784Z,98191.59
2023-05-17T11:59:28.036Z,98207.12
2023-05-17T12:09:31.172Z,98189.50
2023-05-17T12:19:34.266Z,98190.25
2023-05-17T12:29:37.569Z,98192.47
2023-05-17T12:39:41.734Z,98189.13
2023-05-17T12:49:56.592Z,98180.66
2023-05-17T13:00:07.078Z,98178.97
2023-05-17T13:10:23.406Z,98178.72
2023-05-17T13:20:26.306Z,98185.03
2023-05-17T13:30:29.407Z,98182.53
2023-05-17T13:40:33.061Z,98162.00
2023-05-17T13:50:36.782Z,98174.53
2023-05-17T14:00:43.415Z,98155.91
2023-05-17T14:10:46.975Z,98144.84
2023-05-17T14:20:50.899Z,98146.66
2023-05-17T14:30:54.074Z,98151.31
2023-05-17T14:40:57.105Z,98145.38
2023-05-17T14:51:01.126Z,98131.16
2023-05-17T15:01:05.447Z,98127.22
2023-05-17T15:11:13.878Z,98132.06
2023-05-17T15:21:18.226Z,98133.37
2023-05-17T15:31:21.683Z,98123.75
2023-05-17T15:41:30.847Z,98127.38
2023-05-17T15:51:34.421Z,98114.44
2023-05-17T16:01:38.101Z,98128.88
2023-05-17T16:11:41.544Z,98136.44
2023-05-17T16:21:45.005Z,98136.81
2023-05-17T16:31:48.869Z,98128.59
2023-05-17T16:41:53.199Z,98135.16
2023-05-17T16:51:56.144Z,98127.19
2023-05-17T17:01:59.175Z,98131.16
2023-05-17T17:12:06.971Z,98127.75
2023-05-17T17:22:19.801Z,98133.47
2023-05-17T17:32:22.482Z,98126.97
2023-05-17T17:42:25.629Z,98129.78
2023-05-17T17:52:29.466Z,98138.00
2023-05-17T18:02:32.707Z,98138.59
2023-05-17T18:12:35.722Z,98158.16
2023-05-17T18:22:39.008Z,98147.84
2023-05-17T18:32:42.500Z,98145.69
2023-05-17T18:42:46.176Z,98145.69
2023-05-17T18:52:48.968Z,98159.81
2023-05-17T19:02:51.573Z,98157.06
2023-05-17T19:12:55.718Z,98165.38
2023-05-17T19:23:00.009Z,98164.22
2023-05-17T19:33:04.993Z,98173.09
2023-05-17T19:43:09.063Z,98184.81
2023-05-17T19:53:12.476Z,98184.41
2023-05-17T20:03:16.645Z,98187.44
2023-05-17T20:13:23.605Z,98182.72
2023-05-17T20:23:26.552Z,98184.69
2023-05-17T20:33:30.161Z,98193.09
2023-05-17T20:43:35.562Z,98209.34
2023-05-17T20:53:39.494Z,98216.84
2023-05-17T21:03:43.846Z,98226.34
2023-05-17T21:13:46.915Z,98233.94
2023-05-17T21:23:50.153Z,98231.97
2023-05-17T21:33:53.812Z,98239.72
2023-05-17T21:43:57.436Z,98229.22
2023-05-17T21:54:01.426Z,98214.31
2023-05-17T22:04:04.308Z,98213.03
2023-05-17T22:14:08.130Z,98209.41
2023-05-17T22:24:12.363Z,98215.03
2023-05-17T22:34:16.245Z,98205.53
2023-05-17T22:44:20.007Z,98202.41
2023-05-17T22:54:23.841Z,98199.97
2023-05-17T23:04:26.794Z,98191.88
2023-05-17T23:14:29.576Z,98185.66
2023-05-17T23:24:32.043Z,98180.41
2023-05-17T23:34:34.496Z,98169.91
2023-05-17T23:44:38.480Z,98166.50
2023-05-17T23:54:43.968Z,98165.91
